sensor_id;sensor_type;location;lat;lon;timestamp;P1;durP1;ratioP1;P2;durP2;ratioP2
69744;SDS011;57015;50.120;-5.168;2024-01-15T00:00:41;7.68;;;2.88;;
69744;SDS011;57015;50.120;-5.168;2024-01-15T00:03:06;8.55;;;3.72;;
69744;SDS011;57015;50.120;-5.168;2024-01-15T00:05:32;6.40;;;3.13;;
69744;SDS011;57015;50.120;-5.168;2024-01-15T00:07:57;7.07;;;3.23;;
69744;SDS011;57015;50.120;-5.168;2024-01-15T00:10:23;7.00;;;3.30;;
69744;SDS011;57015;50.120;-5.168;2024-01-15T00:12:48;8.40;;;3.05;;
69744;SDS011;57015;50.120;-5.168;2024-01-15T00:15:14;7.50;;;3.43;;
69744;SDS011;57015;50.120;-5.168;2024-01-15T00:17:40;6.55;;;3.15;;
69744;SDS011;57015;50.120;-5.168;2024-01-15T00:20:05;7.00;;;2.90;;
69744;SDS011;57015;50.120;-5.168;2024-01-15T00:22:31;6.55;;;3.05;;
69744;SDS011;57015;50.120;-5.168;2024-01-15T00:24:57;6.67;;;3.07;;
69744;SDS011;57015;50.120;-5.168;2024-01-15T00:27:22;10.97;;;3.33;;
69744;SDS011;57015;50.120;-5.168;2024-01-15T00:29:48;6.22;;;2.63;;
69744;SDS011;57015;50.120;-5.168;2024-01-15T00:32:15;7.43;;;3.00;;
69744;SDS011;57015;50.120;-5.168;2024-01-15T00:34:40;8.77;;;3.30;;
69744;SDS011;57015;50.120;-5.168;2024-01-15T00:37:06;7.17;;;2.70;;
69744;SDS011;57015;50.120;-5.168;2024-01-15T00:39:32;7.18;;;3.08;;
69744;SDS011;57015;50.120;-5.168;2024-01-15T00:41:57;5.63;;;2.70;;
69744;SDS011;57015;50.120;-5.168;2024-01-15T00:44:23;9.13;;;2.83;;
69744;SDS011;57015;50.120;-5.168;2024-01-15T00:46:48;4.93;;;2.30;;
69744;SDS011;57015;50.120;-5.168;2024-01-15T00:49:13;6.47;;;3.08;;
69744;SDS011;57015;50.120;-5.168;2024-01-15T00:51:39;5.13;;;2.73;;
69744;SDS011;57015;50.120;-5.168;2024-01-15T00:54:04;6.00;;;2.73;;
69744;SDS011;57015;50.120;-5.168;2024-01-15T00:56:30;5.88;;;2.40;;
69744;SDS011;57015;50.120;-5.168;2024-01-15T00:58:56;7.47;;;2.63;;
69744;SDS011;57015;50.120;-5.168;2024-01-15T01:01:21;5.43;;;2.60;;
69744;SDS011;57015;50.120;-5.168;2024-01-15T01:03:47;5.37;;;2.80;;
69744;SDS011;57015;50.120;-5.168;2024-01-15T01:06:12;7.65;;;2.28;;
69744;SDS011;57015;50.120;-5.168;2024-01-15T01:08:39;4.85;;;2.30;;
69744;SDS011;57015;50.120;-5.168;2024-01-15T01:11:04;5.40;;;2.40;;
69744;SDS011;57015;50.120;-5.168;2024-01-15T01:13:31;4.53;;;2.30;;
69744;SDS011;57015;50.120;-5.168;2024-01-15T01:15:57;4.93;;;2.33;;
69744;SDS011;57015;50.120;-5.168;2024-01-15T01:18:23;7.03;;;2.17;;
69744;SDS011;57015;50.120;-5.168;2024-01-15T01:20:48;5.67;;;2.30;;
69744;SDS011;57015;50.120;-5.168;2024-01-15T01:23:13;5.87;;;2.20;;
69744;SDS011;57015;50.120;-5.168;2024-01-15T01:25:39;5.30;;;2.07;;
69744;SDS011;57015;50.120;-5.168;2024-01-15T01:28:04;6.57;;;2.53;;
69744;SDS011;57015;50.120;-5.168;2024-01-15T01:30:29;5.20;;;2.10;;
69744;SDS011;57015;50.120;-5.168;2024-01-15T01:32:55;5.90;;;2.10;;
69744;SDS011;57015;50.120;-5.168;2024-01-15T01:35:20;5.43;;;2.17;;
69744;SDS011;57015;50.120;-5.168;2024-01-15T01:37:47;6.63;;;2.25;;
69744;SDS011;57015;50.120;-5.168;2024-01-15T01:40:12;4.77;;;2.00;;
69744;SDS011;57015;50.120;-5.168;2024-01-15T01:42:38;5.40;;;2.60;;
69744;SDS011;57015;50.120;-5.168;2024-01-15T01:45:03;4.60;;;2.20;;
69744;SDS011;57015;50.120;-5.168;2024-01-15T01:47:29;5.53;;;2.22;;
69744;SDS011;57015;50.120;-5.168;2024-01-15T01:49:54;5.43;;;2.37;;
69744;SDS011;57015;50.120;-5.168;2024-01-15T01:52:20;4.97;;;2.13;;
69744;SDS011;57015;50.120;-5.168;2024-01-15T01:54:45;4.90;;;2.10;;
69744;SDS011;57015;50.120;-5.168;2024-01-15T01:57:10;6.10;;;2.57;;
69744;SDS011;57015;50.120;-5.168;2024-01-15T01:59:37;5.50;;;2.35;;
69744;SDS011;57015;50.120;-5.168;2024-01-15T02:02:03;8.07;;;2.83;;
69744;SDS011;57015;50.120;-5.168;2024-01-15T02:04:29;3.80;;;1.77;;
69744;SDS011;57015;50.120;-5.168;2024-01-15T02:06:55;5.20;;;2.20;;
69744;SDS011;57015;50.120;-5.168;2024-01-15T02:09:20;5.30;;;2.10;;
69744;SDS011;57015;50.120;-5.168;2024-01-15T02:11:46;5.17;;;1.60;;
69744;SDS011;57015;50.120;-5.168;2024-01-15T02:14:12;6.13;;;2.20;;
69744;SDS011;57015;50.120;-5.168;2024-01-15T02:16:37;4.13;;;1.87;;
69744;SDS011;57015;50.120;-5.168;2024-01-15T02:19:03;6.10;;;1.97;;
69744;SDS011;57015;50.120;-5.168;2024-01-15T02:21:28;5.38;;;2.35;;
69744;SDS011;57015;50.120;-5.168;2024-01-15T02:23:55;6.37;;;2.93;;
69744;SDS011;57015;50.120;-5.168;2024-01-15T02:26:20;4.75;;;1.80;;
69744;SDS011;57015;50.120;-5.168;2024-01-15T02:28:47;4.63;;;1.60;;
69744;SDS011;57015;50.120;-5.168;2024-01-15T02:31:12;5.57;;;1.90;;
69744;SDS011;57015;50.120;-5.168;2024-01-15T02:33:38;5.40;;;2.25;;
69744;SDS011;57015;50.120;-5.168;2024-01-15T02:36:03;5.80;;;1.97;;
69744;SDS011;57015;50.120;-5.168;2024-01-15T02:38:29;6.53;;;1.83;;
69744;SDS011;57015;50.120;-5.168;2024-01-15T02:40:54;5.67;;;1.97;;
69744;SDS011;57015;50.120;-5.168;2024-01-15T02:43:20;4.63;;;1.58;;
69744;SDS011;57015;50.120;-5.168;2024-01-15T02:45:45;4.43;;;1.50;;
69744;SDS011;57015;50.120;-5.168;2024-01-15T02:48:11;5.00;;;1.88;;
69744;SDS011;57015;50.120;-5.168;2024-01-15T02:50:37;6.83;;;1.90;;
69744;SDS011;57015;50.120;-5.168;2024-01-15T02:53:02;4.53;;;2.00;;
69744;SDS011;57015;50.120;-5.168;2024-01-15T02:55:28;2.57;;;1.20;;
69744;SDS011;57015;50.120;-5.168;2024-01-15T02:57:54;4.10;;;1.60;;
69744;SDS011;57015;50.120;-5.168;2024-01-15T03:00:20;4.60;;;1.43;;
69744;SDS011;57015;50.120;-5.168;2024-01-15T03:02:45;3.80;;;1.05;;
69744;SDS011;57015;50.120;-5.168;2024-01-15T03:05:11;5.73;;;1.40;;
69744;SDS011;57015;50.120;-5.168;2024-01-15T03:07:36;4.20;;;1.50;;
69744;SDS011;57015;50.120;-5.168;2024-01-15T03:10:02;3.65;;;1.40;;
69744;SDS011;57015;50.120;-5.168;2024-01-15T03:12:27;4.47;;;1.50;;
69744;SDS011;57015;50.120;-5.168;2024-01-15T03:14:53;4.20;;;1.40;;
69744;SDS011;57015;50.120;-5.168;2024-01-15T03:17:18;3.40;;;1.00;;
69744;SDS011;57015;50.120;-5.168;2024-01-15T03:19:44;3.63;;;1.55;;
69744;SDS011;57015;50.120;-5.168;2024-01-15T03:22:09;3.25;;;1.27;;
69744;SDS011;57015;50.120;-5.168;2024-01-15T03:24:35;4.30;;;1.60;;
69744;SDS011;57015;50.120;-5.168;2024-01-15T03:27:01;2.90;;;1.20;;
69744;SDS011;57015;50.120;-5.168;2024-01-15T03:29:27;5.35;;;1.33;;
69744;SDS011;57015;50.120;-5.168;2024-01-15T03:31:52;5.20;;;1.50;;
69744;SDS011;57015;50.120;-5.168;2024-01-15T03:34:17;4.37;;;1.13;;
69744;SDS011;57015;50.120;-5.168;2024-01-15T03:36:43;3.10;;;0.95;;
69744;SDS011;57015;50.120;-5.168;2024-01-15T03:39:08;3.47;;;0.90;;
69744;SDS011;57015;50.120;-5.168;2024-01-15T03:41:34;3.23;;;1.00;;
69744;SDS011;57015;50.120;-5.168;2024-01-15T03:43:59;2.80;;;0.80;;
69744;SDS011;57015;50.120;-5.168;2024-01-15T03:46:25;2.70;;;0.80;;
69744;SDS011;57015;50.120;-5.168;2024-01-15T03:48:50;2.67;;;0.80;;
69744;SDS011;57015;50.120;-5.168;2024-01-15T03:51:18;2.78;;;0.88;;
69744;SDS011;57015;50.120;-5.168;2024-01-15T03:53:44;2.28;;;0.88;;
69744;SDS011;57015;50.120;-5.168;2024-01-15T03:56:09;4.37;;;0.60;;
69744;SDS011;57015;50.120;-5.168;2024-01-15T03:58:35;1.83;;;0.63;;
69744;SDS011;57015;50.120;-5.168;2024-01-15T04:01:00;4.07;;;0.60;;
69744;SDS011;57015;50.120;-5.168;2024-01-15T04:03:26;4.70;;;0.80;;
69744;SDS011;57015;50.120;-5.168;2024-01-15T04:05:51;3.17;;;1.10;;
69744;SDS011;57015;50.120;-5.168;2024-01-15T04:08:16;2.03;;;0.60;;
69744;SDS011;57015;50.120;-5.168;2024-01-15T04:10:42;3.70;;;0.63;;
69744;SDS011;57015;50.120;-5.168;2024-01-15T04:13:07;3.63;;;0.65;;
69744;SDS011;57015;50.120;-5.168;2024-01-15T04:15:32;3.03;;;0.57;;
69744;SDS011;57015;50.120;-5.168;2024-01-15T04:17:58;2.27;;;0.70;;
69744;SDS011;57015;50.120;-5.168;2024-01-15T04:20:23;2.30;;;0.70;;
69744;SDS011;57015;50.120;-5.168;2024-01-15T04:22:48;2.57;;;0.87;;
69744;SDS011;57015;50.120;-5.168;2024-01-15T04:25:14;3.70;;;0.70;;
69744;SDS011;57015;50.120;-5.168;2024-01-15T04:27:39;2.33;;;0.50;;
69744;SDS011;57015;50.120;-5.168;2024-01-15T04:30:05;1.73;;;0.53;;
69744;SDS011;57015;50.120;-5.168;2024-01-15T04:32:30;2.42;;;0.50;;
69744;SDS011;57015;50.120;-5.168;2024-01-15T04:34:56;2.73;;;0.60;;
69744;SDS011;57015;50.120;-5.168;2024-01-15T04:37:21;2.90;;;0.50;;
69744;SDS011;57015;50.120;-5.168;2024-01-15T04:39:46;1.57;;;0.50;;
69744;SDS011;57015;50.120;-5.168;2024-01-15T04:42:12;4.93;;;0.88;;
69744;SDS011;57015;50.120;-5.168;2024-01-15T04:44:37;2.00;;;0.68;;
69744;SDS011;57015;50.120;-5.168;2024-01-15T04:47:03;2.43;;;0.47;;
69744;SDS011;57015;50.120;-5.168;2024-01-15T04:49:28;1.53;;;0.50;;
69744;SDS011;57015;50.120;-5.168;2024-01-15T04:51:54;2.50;;;0.40;;
69744;SDS011;57015;50.120;-5.168;2024-01-15T04:54:19;1.57;;;0.40;;
69744;SDS011;57015;50.120;-5.168;2024-01-15T04:56:45;1.40;;;0.40;;
69744;SDS011;57015;50.120;-5.168;2024-01-15T04:59:11;1.58;;;0.38;;
69744;SDS011;57015;50.120;-5.168;2024-01-15T05:01:36;2.67;;;0.40;;
69744;SDS011;57015;50.120;-5.168;2024-01-15T05:04:01;0.93;;;0.30;;
69744;SDS011;57015;50.120;-5.168;2024-01-15T05:06:27;1.30;;;0.30;;
69744;SDS011;57015;50.120;-5.168;2024-01-15T05:08:53;1.05;;;0.35;;
69744;SDS011;57015;50.120;-5.168;2024-01-15T05:11:18;2.40;;;0.30;;
69744;SDS011;57015;50.120;-5.168;2024-01-15T05:13:44;2.50;;;0.40;;
69744;SDS011;57015;50.120;-5.168;2024-01-15T05:16:09;2.25;;;0.52;;
69744;SDS011;57015;50.120;-5.168;2024-01-15T05:18:34;1.02;;;0.40;;
69744;SDS011;57015;50.120;-5.168;2024-01-15T05:21:02;1.60;;;0.30;;
69744;SDS011;57015;50.120;-5.168;2024-01-15T05:23:28;1.85;;;0.30;;
69744;SDS011;57015;50.120;-5.168;2024-01-15T05:25:53;1.27;;;0.40;;
69744;SDS011;57015;50.120;-5.168;2024-01-15T05:28:18;1.30;;;0.30;;
69744;SDS011;57015;50.120;-5.168;2024-01-15T05:30:44;1.70;;;0.50;;
69744;SDS011;57015;50.120;-5.168;2024-01-15T05:33:09;1.33;;;0.20;;
69744;SDS011;57015;50.120;-5.168;2024-01-15T05:35:34;2.03;;;0.20;;
69744;SDS011;57015;50.120;-5.168;2024-01-15T05:38:00;1.27;;;0.30;;
69744;SDS011;57015;50.120;-5.168;2024-01-15T05:40:25;1.47;;;0.20;;
69744;SDS011;57015;50.120;-5.168;2024-01-15T05:42:51;2.17;;;0.20;;
69744;SDS011;57015;50.120;-5.168;2024-01-15T05:45:16;4.07;;;0.37;;
69744;SDS011;57015;50.120;-5.168;2024-01-15T05:47:42;0.98;;;0.20;;
69744;SDS011;57015;50.120;-5.168;2024-01-15T05:50:09;1.00;;;0.20;;
69744;SDS011;57015;50.120;-5.168;2024-01-15T05:52:34;6.28;;;0.50;;
69744;SDS011;57015;50.120;-5.168;2024-01-15T05:55:00;2.00;;;0.57;;
69744;SDS011;57015;50.120;-5.168;2024-01-15T05:57:25;2.57;;;0.20;;
69744;SDS011;57015;50.120;-5.168;2024-01-15T05:59:51;1.47;;;0.30;;
69744;SDS011;57015;50.120;-5.168;2024-01-15T06:02:16;1.38;;;0.30;;
69744;SDS011;57015;50.120;-5.168;2024-01-15T06:04:42;1.70;;;0.27;;
69744;SDS011;57015;50.120;-5.168;2024-01-15T06:07:07;2.00;;;0.40;;
69744;SDS011;57015;50.120;-5.168;2024-01-15T06:09:32;0.80;;;0.20;;
69744;SDS011;57015;50.120;-5.168;2024-01-15T06:11:58;1.03;;;0.10;;
69744;SDS011;57015;50.120;-5.168;2024-01-15T06:14:23;3.13;;;0.20;;
69744;SDS011;57015;50.120;-5.168;2024-01-15T06:16:48;1.67;;;0.30;;
69744;SDS011;57015;50.120;-5.168;2024-01-15T06:19:14;1.50;;;0.30;;
69744;SDS011;57015;50.120;-5.168;2024-01-15T06:21:39;3.00;;;0.60;;
69744;SDS011;57015;50.120;-5.168;2024-01-15T06:24:05;2.90;;;0.30;;
69744;SDS011;57015;50.120;-5.168;2024-01-15T06:26:30;2.78;;;0.45;;
69744;SDS011;57015;50.120;-5.168;2024-01-15T06:28:56;0.70;;;0.20;;
69744;SDS011;57015;50.120;-5.168;2024-01-15T06:31:21;2.03;;;0.27;;
69744;SDS011;57015;50.120;-5.168;2024-01-15T06:33:47;1.47;;;0.30;;
69744;SDS011;57015;50.120;-5.168;2024-01-15T06:36:13;2.35;;;0.30;;
69744;SDS011;57015;50.120;-5.168;2024-01-15T06:38:39;1.10;;;0.30;;
69744;SDS011;57015;50.120;-5.168;2024-01-15T06:41:04;3.13;;;0.30;;
69744;SDS011;57015;50.120;-5.168;2024-01-15T06:43:29;2.40;;;0.38;;
69744;SDS011;57015;50.120;-5.168;2024-01-15T06:45:55;1.27;;;0.30;;
69744;SDS011;57015;50.120;-5.168;2024-01-15T06:48:20;1.10;;;0.23;;
69744;SDS011;57015;50.120;-5.168;2024-01-15T06:50:46;0.70;;;0.20;;
69744;SDS011;57015;50.120;-5.168;2024-01-15T06:53:11;1.50;;;0.47;;
69744;SDS011;57015;50.120;-5.168;2024-01-15T06:55:37;1.50;;;0.40;;
69744;SDS011;57015;50.120;-5.168;2024-01-15T06:58:03;1.20;;;0.30;;
69744;SDS011;57015;50.120;-5.168;2024-01-15T07:00:28;1.13;;;0.38;;
69744;SDS011;57015;50.120;-5.168;2024-01-15T07:02:54;1.25;;;0.30;;
69744;SDS011;57015;50.120;-5.168;2024-01-15T07:05:23;2.90;;;0.40;;
69744;SDS011;57015;50.120;-5.168;2024-01-15T07:07:48;0.52;;;0.15;;
69744;SDS011;57015;50.120;-5.168;2024-01-15T07:10:14;2.37;;;0.30;;
69744;SDS011;57015;50.120;-5.168;2024-01-15T07:12:41;2.23;;;0.60;;
69744;SDS011;57015;50.120;-5.168;2024-01-15T07:15:07;1.42;;;0.35;;
69744;SDS011;57015;50.120;-5.168;2024-01-15T07:17:33;0.83;;;0.27;;
69744;SDS011;57015;50.120;-5.168;2024-01-15T07:19:59;1.83;;;0.20;;
69744;SDS011;57015;50.120;-5.168;2024-01-15T07:22:24;1.60;;;0.40;;
69744;SDS011;57015;50.120;-5.168;2024-01-15T07:24:50;2.00;;;0.30;;
69744;SDS011;57015;50.120;-5.168;2024-01-15T07:27:15;2.63;;;0.50;;
69744;SDS011;57015;50.120;-5.168;2024-01-15T07:29:41;1.45;;;0.50;;
69744;SDS011;57015;50.120;-5.168;2024-01-15T07:32:07;1.38;;;0.30;;
69744;SDS011;57015;50.120;-5.168;2024-01-15T07:34:33;0.83;;;0.20;;
69744;SDS011;57015;50.120;-5.168;2024-01-15T07:36:58;1.10;;;0.40;;
69744;SDS011;57015;50.120;-5.168;2024-01-15T07:39:23;1.83;;;0.43;;
69744;SDS011;57015;50.120;-5.168;2024-01-15T07:41:50;2.08;;;0.35;;
69744;SDS011;57015;50.120;-5.168;2024-01-15T07:44:16;1.97;;;0.37;;
69744;SDS011;57015;50.120;-5.168;2024-01-15T07:46:45;2.53;;;0.30;;
69744;SDS011;57015;50.120;-5.168;2024-01-15T07:49:11;1.30;;;0.20;;
69744;SDS011;57015;50.120;-5.168;2024-01-15T07:51:37;1.03;;;0.23;;
69744;SDS011;57015;50.120;-5.168;2024-01-15T07:54:02;2.47;;;0.47;;
69744;SDS011;57015;50.120;-5.168;2024-01-15T07:56:28;1.42;;;0.30;;
69744;SDS011;57015;50.120;-5.168;2024-01-15T07:58:53;1.30;;;0.30;;
69744;SDS011;57015;50.120;-5.168;2024-01-15T08:01:19;3.10;;;0.40;;
69744;SDS011;57015;50.120;-5.168;2024-01-15T08:03:44;1.67;;;0.37;;
69744;SDS011;57015;50.120;-5.168;2024-01-15T08:06:09;1.37;;;0.30;;
69744;SDS011;57015;50.120;-5.168;2024-01-15T08:08:37;1.90;;;0.30;;
69744;SDS011;57015;50.120;-5.168;2024-01-15T08:11:02;1.55;;;0.30;;
69744;SDS011;57015;50.120;-5.168;2024-01-15T08:13:28;3.27;;;0.30;;
69744;SDS011;57015;50.120;-5.168;2024-01-15T08:15:53;1.93;;;0.20;;
69744;SDS011;57015;50.120;-5.168;2024-01-15T08:18:18;2.03;;;0.57;;
69744;SDS011;57015;50.120;-5.168;2024-01-15T08:20:45;3.72;;;0.40;;
69744;SDS011;57015;50.120;-5.168;2024-01-15T08:23:11;2.23;;;0.50;;
69744;SDS011;57015;50.120;-5.168;2024-01-15T08:25:36;1.33;;;0.40;;
69744;SDS011;57015;50.120;-5.168;2024-01-15T08:28:03;3.53;;;0.55;;
69744;SDS011;57015;50.120;-5.168;2024-01-15T08:30:32;1.63;;;0.50;;
69744;SDS011;57015;50.120;-5.168;2024-01-15T08:33:35;1.33;;;0.50;;
69744;SDS011;57015;50.120;-5.168;2024-01-15T08:36:09;2.88;;;0.47;;
69744;SDS011;57015;50.120;-5.168;2024-01-15T08:38:49;0.93;;;0.30;;
69744;SDS011;57015;50.120;-5.168;2024-01-15T08:41:14;4.20;;;0.57;;
69744;SDS011;57015;50.120;-5.168;2024-01-15T08:43:46;1.77;;;0.43;;
69744;SDS011;57015;50.120;-5.168;2024-01-15T08:46:41;4.23;;;0.50;;
69744;SDS011;57015;50.120;-5.168;2024-01-15T08:49:27;2.88;;;0.20;;
69744;SDS011;57015;50.120;-5.168;2024-01-15T08:52:05;3.72;;;0.30;;
69744;SDS011;57015;50.120;-5.168;2024-01-15T08:54:39;3.22;;;0.45;;
69744;SDS011;57015;50.120;-5.168;2024-01-15T08:57:10;1.08;;;0.32;;
69744;SDS011;57015;50.120;-5.168;2024-01-15T08:59:53;1.47;;;0.50;;
69744;SDS011;57015;50.120;-5.168;2024-01-15T09:02:21;2.33;;;0.50;;
69744;SDS011;57015;50.120;-5.168;2024-01-15T09:04:46;1.75;;;0.50;;
69744;SDS011;57015;50.120;-5.168;2024-01-15T09:07:12;2.47;;;0.80;;
69744;SDS011;57015;50.120;-5.168;2024-01-15T09:09:42;5.65;;;0.85;;
69744;SDS011;57015;50.120;-5.168;2024-01-15T09:12:08;4.83;;;0.80;;
69744;SDS011;57015;50.120;-5.168;2024-01-15T09:14:33;2.20;;;0.80;;
69744;SDS011;57015;50.120;-5.168;2024-01-15T09:16:59;2.33;;;0.93;;
69744;SDS011;57015;50.120;-5.168;2024-01-15T09:19:24;3.92;;;1.00;;
69744;SDS011;57015;50.120;-5.168;2024-01-15T09:21:52;3.65;;;1.33;;
69744;SDS011;57015;50.120;-5.168;2024-01-15T09:24:17;2.83;;;0.63;;
69744;SDS011;57015;50.120;-5.168;2024-01-15T09:26:49;5.03;;;0.88;;
69744;SDS011;57015;50.120;-5.168;2024-01-15T09:29:14;3.47;;;1.00;;
69744;SDS011;57015;50.120;-5.168;2024-01-15T09:31:41;4.10;;;0.85;;
69744;SDS011;57015;50.120;-5.168;2024-01-15T09:34:06;4.33;;;0.83;;
69744;SDS011;57015;50.120;-5.168;2024-01-15T09:36:32;4.28;;;0.95;;
69744;SDS011;57015;50.120;-5.168;2024-01-15T09:38:57;7.50;;;1.00;;
69744;SDS011;57015;50.120;-5.168;2024-01-15T09:41:23;5.90;;;1.00;;
69744;SDS011;57015;50.120;-5.168;2024-01-15T09:43:48;5.23;;;1.27;;
69744;SDS011;57015;50.120;-5.168;2024-01-15T09:46:15;4.30;;;1.00;;
69744;SDS011;57015;50.120;-5.168;2024-01-15T09:48:41;3.17;;;1.17;;
69744;SDS011;57015;50.120;-5.168;2024-01-15T09:51:12;7.88;;;1.08;;
69744;SDS011;57015;50.120;-5.168;2024-01-15T09:53:40;4.63;;;1.17;;
69744;SDS011;57015;50.120;-5.168;2024-01-15T09:56:08;6.05;;;1.30;;
69744;SDS011;57015;50.120;-5.168;2024-01-15T09:58:37;4.47;;;1.27;;
69744;SDS011;57015;50.120;-5.168;2024-01-15T10:01:04;3.25;;;0.77;;
69744;SDS011;57015;50.120;-5.168;2024-01-15T10:03:29;5.60;;;0.70;;
69744;SDS011;57015;50.120;-5.168;2024-01-15T10:05:55;4.75;;;0.80;;
69744;SDS011;57015;50.120;-5.168;2024-01-15T10:08:23;2.83;;;1.10;;
69744;SDS011;57015;50.120;-5.168;2024-01-15T10:10:49;3.08;;;0.85;;
69744;SDS011;57015;50.120;-5.168;2024-01-15T10:13:15;4.57;;;1.00;;
69744;SDS011;57015;50.120;-5.168;2024-01-15T10:15:40;5.90;;;1.40;;
69744;SDS011;57015;50.120;-5.168;2024-01-15T10:18:07;5.90;;;1.40;;
69744;SDS011;57015;50.120;-5.168;2024-01-15T10:20:33;3.80;;;0.87;;
69744;SDS011;57015;50.120;-5.168;2024-01-15T10:22:58;7.90;;;1.43;;
69744;SDS011;57015;50.120;-5.168;2024-01-15T10:25:24;6.53;;;1.33;;
69744;SDS011;57015;50.120;-5.168;2024-01-15T10:28:03;2.70;;;0.60;;
69744;SDS011;57015;50.120;-5.168;2024-01-15T10:30:29;5.88;;;1.55;;
69744;SDS011;57015;50.120;-5.168;2024-01-15T10:33:02;3.97;;;0.90;;
69744;SDS011;57015;50.120;-5.168;2024-01-15T10:35:33;3.58;;;0.65;;
69744;SDS011;57015;50.120;-5.168;2024-01-15T10:37:59;6.20;;;1.10;;
69744;SDS011;57015;50.120;-5.168;2024-01-15T10:40:28;4.43;;;1.00;;
69744;SDS011;57015;50.120;-5.168;2024-01-15T10:42:54;4.75;;;1.15;;
69744;SDS011;57015;50.120;-5.168;2024-01-15T10:45:19;4.47;;;1.10;;
69744;SDS011;57015;50.120;-5.168;2024-01-15T10:47:45;3.72;;;1.08;;
69744;SDS011;57015;50.120;-5.168;2024-01-15T10:50:11;7.00;;;1.53;;
69744;SDS011;57015;50.120;-5.168;2024-01-15T10:52:37;5.10;;;1.45;;
69744;SDS011;57015;50.120;-5.168;2024-01-15T10:55:05;9.07;;;1.75;;
69744;SDS011;57015;50.120;-5.168;2024-01-15T10:57:31;5.10;;;1.60;;
69744;SDS011;57015;50.120;-5.168;2024-01-15T10:59:57;7.53;;;1.45;;
69744;SDS011;57015;50.120;-5.168;2024-01-15T11:02:24;5.63;;;1.30;;
69744;SDS011;57015;50.120;-5.168;2024-01-15T11:04:50;3.85;;;1.17;;
69744;SDS011;57015;50.120;-5.168;2024-01-15T11:07:15;4.37;;;1.40;;
69744;SDS011;57015;50.120;-5.168;2024-01-15T11:09:40;6.60;;;1.60;;
69744;SDS011;57015;50.120;-5.168;2024-01-15T11:12:07;4.65;;;1.23;;
69744;SDS011;57015;50.120;-5.168;2024-01-15T11:14:41;9.87;;;1.40;;
69744;SDS011;57015;50.120;-5.168;2024-01-15T11:17:08;4.07;;;1.08;;
69744;SDS011;57015;50.120;-5.168;2024-01-15T11:19:35;6.07;;;1.60;;
69744;SDS011;57015;50.120;-5.168;2024-01-15T11:22:11;6.20;;;1.00;;
69744;SDS011;57015;50.120;-5.168;2024-01-15T11:24:55;5.57;;;1.35;;
69744;SDS011;57015;50.120;-5.168;2024-01-15T11:27:39;3.97;;;0.73;;
69744;SDS011;57015;50.120;-5.168;2024-01-15T11:30:10;3.78;;;0.80;;
69744;SDS011;57015;50.120;-5.168;2024-01-15T11:32:36;5.95;;;0.75;;
69744;SDS011;57015;50.120;-5.168;2024-01-15T11:35:02;2.40;;;0.80;;
69744;SDS011;57015;50.120;-5.168;2024-01-15T11:37:29;4.65;;;1.00;;
69744;SDS011;57015;50.120;-5.168;2024-01-15T11:39:55;5.30;;;0.80;;
69744;SDS011;57015;50.120;-5.168;2024-01-15T11:42:26;6.88;;;0.90;;
69744;SDS011;57015;50.120;-5.168;2024-01-15T11:44:52;3.15;;;1.25;;
69744;SDS011;57015;50.120;-5.168;2024-01-15T11:47:26;2.92;;;0.70;;
69744;SDS011;57015;50.120;-5.168;2024-01-15T11:50:03;7.90;;;0.70;;
69744;SDS011;57015;50.120;-5.168;2024-01-15T11:52:32;3.70;;;0.50;;
69744;SDS011;57015;50.120;-5.168;2024-01-15T11:55:19;2.75;;;0.52;;
69744;SDS011;57015;50.120;-5.168;2024-01-15T11:57:51;10.75;;;1.13;;
69744;SDS011;57015;50.120;-5.168;2024-01-15T12:00:19;3.13;;;0.90;;
69744;SDS011;57015;50.120;-5.168;2024-01-15T12:02:47;7.60;;;1.10;;
69744;SDS011;57015;50.120;-5.168;2024-01-15T12:05:14;3.87;;;1.03;;
69744;SDS011;57015;50.120;-5.168;2024-01-15T12:07:48;5.38;;;0.80;;
69744;SDS011;57015;50.120;-5.168;2024-01-15T12:10:18;5.85;;;1.40;;
69744;SDS011;57015;50.120;-5.168;2024-01-15T12:13:02;8.02;;;1.63;;
69744;SDS011;57015;50.120;-5.168;2024-01-15T12:15:31;3.90;;;1.02;;
69744;SDS011;57015;50.120;-5.168;2024-01-15T12:17:58;13.33;;;1.97;;
69744;SDS011;57015;50.120;-5.168;2024-01-15T12:20:24;5.40;;;1.13;;
69744;SDS011;57015;50.120;-5.168;2024-01-15T12:22:50;5.28;;;1.23;;
69744;SDS011;57015;50.120;-5.168;2024-01-15T12:25:16;5.03;;;1.10;;
69744;SDS011;57015;50.120;-5.168;2024-01-15T12:27:41;4.13;;;1.07;;
69744;SDS011;57015;50.120;-5.168;2024-01-15T12:30:07;4.80;;;0.90;;
69744;SDS011;57015;50.120;-5.168;2024-01-15T12:32:32;5.25;;;1.10;;
69744;SDS011;57015;50.120;-5.168;2024-01-15T12:35:00;4.80;;;0.90;;
69744;SDS011;57015;50.120;-5.168;2024-01-15T12:37:25;4.10;;;0.60;;
69744;SDS011;57015;50.120;-5.168;2024-01-15T12:39:51;2.20;;;0.50;;
69744;SDS011;57015;50.120;-5.168;2024-01-15T12:42:17;3.97;;;1.03;;
69744;SDS011;57015;50.120;-5.168;2024-01-15T12:44:42;4.87;;;1.10;;
69744;SDS011;57015;50.120;-5.168;2024-01-15T12:47:09;5.10;;;0.68;;
69744;SDS011;57015;50.120;-5.168;2024-01-15T12:49:38;3.72;;;0.52;;
69744;SDS011;57015;50.120;-5.168;2024-01-15T12:52:07;3.50;;;0.70;;
69744;SDS011;57015;50.120;-5.168;2024-01-15T12:54:33;2.83;;;0.55;;
69744;SDS011;57015;50.120;-5.168;2024-01-15T12:56:58;6.73;;;2.07;;
69744;SDS011;57015;50.120;-5.168;2024-01-15T12:59:24;2.90;;;0.60;;
69744;SDS011;57015;50.120;-5.168;2024-01-15T13:01:49;1.75;;;0.30;;
69744;SDS011;57015;50.120;-5.168;2024-01-15T13:04:21;3.75;;;0.50;;
69744;SDS011;57015;50.120;-5.168;2024-01-15T13:06:47;3.07;;;0.40;;
69744;SDS011;57015;50.120;-5.168;2024-01-15T13:09:14;3.70;;;0.40;;
69744;SDS011;57015;50.120;-5.168;2024-01-15T13:11:39;3.33;;;0.52;;
69744;SDS011;57015;50.120;-5.168;2024-01-15T13:14:05;4.20;;;0.50;;
69744;SDS011;57015;50.120;-5.168;2024-01-15T13:16:32;3.63;;;0.53;;
69744;SDS011;57015;50.120;-5.168;2024-01-15T13:18:57;4.70;;;0.80;;
69744;SDS011;57015;50.120;-5.168;2024-01-15T13:21:23;5.70;;;0.40;;
69744;SDS011;57015;50.120;-5.168;2024-01-15T13:23:49;6.77;;;0.30;;
69744;SDS011;57015;50.120;-5.168;2024-01-15T13:26:14;2.73;;;0.40;;
69744;SDS011;57015;50.120;-5.168;2024-01-15T13:28:40;3.70;;;0.43;;
69744;SDS011;57015;50.120;-5.168;2024-01-15T13:31:05;2.35;;;0.10;;
69744;SDS011;57015;50.120;-5.168;2024-01-15T13:33:31;1.20;;;0.20;;
69744;SDS011;57015;50.120;-5.168;2024-01-15T13:35:57;5.43;;;0.70;;
69744;SDS011;57015;50.120;-5.168;2024-01-15T13:38:23;1.90;;;0.13;;
69744;SDS011;57015;50.120;-5.168;2024-01-15T13:40:49;4.13;;;0.33;;
69744;SDS011;57015;50.120;-5.168;2024-01-15T13:43:14;4.07;;;0.32;;
69744;SDS011;57015;50.120;-5.168;2024-01-15T13:45:43;2.73;;;0.30;;
69744;SDS011;57015;50.120;-5.168;2024-01-15T13:48:08;2.38;;;0.35;;
69744;SDS011;57015;50.120;-5.168;2024-01-15T13:50:34;2.93;;;0.20;;
69744;SDS011;57015;50.120;-5.168;2024-01-15T13:53:03;2.17;;;0.20;;
69744;SDS011;57015;50.120;-5.168;2024-01-15T13:55:29;3.03;;;0.22;;
69744;SDS011;57015;50.120;-5.168;2024-01-15T13:57:54;3.97;;;0.57;;
69744;SDS011;57015;50.120;-5.168;2024-01-15T14:00:20;2.70;;;0.20;;
69744;SDS011;57015;50.120;-5.168;2024-01-15T14:02:45;4.43;;;0.50;;
69744;SDS011;57015;50.120;-5.168;2024-01-15T14:05:11;3.17;;;0.40;;
69744;SDS011;57015;50.120;-5.168;2024-01-15T14:07:40;2.17;;;0.30;;
69744;SDS011;57015;50.120;-5.168;2024-01-15T14:10:08;3.75;;;0.30;;
69744;SDS011;57015;50.120;-5.168;2024-01-15T14:12:34;2.45;;;0.20;;
69744;SDS011;57015;50.120;-5.168;2024-01-15T14:15:01;2.65;;;0.25;;
69744;SDS011;57015;50.120;-5.168;2024-01-15T14:17:27;2.47;;;0.40;;
69744;SDS011;57015;50.120;-5.168;2024-01-15T14:19:53;3.47;;;0.28;;
69744;SDS011;57015;50.120;-5.168;2024-01-15T14:22:18;1.53;;;0.30;;
69744;SDS011;57015;50.120;-5.168;2024-01-15T14:24:44;3.03;;;0.60;;
69744;SDS011;57015;50.120;-5.168;2024-01-15T14:27:09;4.07;;;0.20;;
69744;SDS011;57015;50.120;-5.168;2024-01-15T14:29:35;0.80;;;0.20;;